createdAt,value
2018-05-02T00:00:36.733Z,8.32
2018-05-02T00:06:31.743Z,10.08
2018-05-02T00:12:26.788Z,9.94
2018-05-02T00:18:21.733Z,10.08
2018-05-02T00:24:16.769Z,10.34
2018-05-02T00:30:11.726Z,9.77
2018-05-02T00:36:06.752Z,9.34
2018-05-02T00:42:01.740Z,10.17
2018-05-02T00:47:56.840Z,10.7
2018-05-02T00:53:51.747Z,11.74
2018-05-02T00:59:46.742Z,11.42
2018-05-02T01:05:41.795Z,10.9
2018-05-02T01:11:36.751Z,11.4
2018-05-02T01:17:31.717Z,11.36
2018-05-02T01:23:26.768Z,12.69
2018-05-02T01:29:21.733Z,11.6
2018-05-02T01:35:16.794Z,10.75
2018-05-02T01:41:11.748Z,11.04
2018-05-02T01:47:06.732Z,9.93
2018-05-02T01:53:01.748Z,11.4
2018-05-02T01:58:56.781Z,11.54
2018-05-02T02:04:51.748Z,10.36
2018-05-02T02:10:46.746Z,10.9
2018-05-02T02:16:41.758Z,11.04
2018-05-02T02:22:36.714Z,12.01
2018-05-02T02:28:31.756Z,12.97
2018-05-02T02:34:26.761Z,13.46
2018-05-02T02:40:21.730Z,9.76
2018-05-02T02:46:16.754Z,11
2018-05-02T02:52:11.756Z,12.46
2018-05-02T02:58:06.731Z,13.72
2018-05-02T03:04:01.727Z,12.55
2018-05-02T03:09:56.750Z,13.1
2018-05-02T03:15:51.760Z,14.82
2018-05-02T03:21:46.740Z,13.17
2018-05-02T03:27:41.815Z,10.22
2018-05-02T03:33:36.753Z,8.33
2018-05-02T03:39:31.732Z,7.58
2018-05-02T03:45:26.763Z,3.92
2018-05-02T03:51:21.711Z,6.2
2018-05-02T03:57:16.722Z,8.92
2018-05-02T04:03:11.757Z,8.42
2018-05-02T04:09:06.730Z,7.51
2018-05-02T04:15:01.734Z,6.45
2018-05-02T04:20:56.727Z,7.04
2018-05-02T04:26:51.732Z,6.45
2018-05-02T04:32:46.736Z,8.11
2018-05-02T04:38:41.716Z,5.31
2018-05-02T04:44:36.737Z,5.66
2018-05-02T04:50:31.744Z,6.9
2018-05-02T04:56:26.719Z,5.79
2018-05-02T05:02:21.747Z,6.22
2018-05-02T05:08:16.752Z,5.93
2018-05-02T05:14:11.720Z,5.56
2018-05-02T05:20:06.747Z,5.45
2018-05-02T05:26:01.784Z,6.2
2018-05-02T05:31:56.765Z,7.07
2018-05-02T05:37:51.732Z,5.17
2018-05-02T05:43:46.733Z,6.9
2018-05-02T05:49:41.740Z,7.06
2018-05-02T05:55:36.757Z,7.52
2018-05-02T06:01:31.737Z,10.77
2018-05-02T06:07:26.785Z,8.64
2018-05-02T06:13:21.812Z,6.4
2018-05-02T06:19:16.717Z,7.61
2018-05-02T06:25:11.728Z,5.85
2018-05-02T06:31:06.729Z,2.46
2018-05-02T06:37:01.734Z,2.85
2018-05-02T06:42:56.758Z,3.87
2018-05-02T06:48:51.783Z,3.5
2018-05-02T06:54:46.769Z,3.2
2018-05-02T07:00:41.707Z,2.3
2018-05-02T07:06:36.693Z,2.24
2018-05-02T07:12:31.766Z,1.73
2018-05-02T07:18:26.719Z,1.81
2018-05-02T07:24:21.715Z,1.54
2018-05-02T07:30:16.756Z,1.8
2018-05-02T07:36:11.731Z,1.7
2018-05-02T07:42:06.735Z,2
2018-05-02T07:48:01.747Z,2.05
2018-05-02T07:53:56.777Z,3.08
2018-05-02T07:59:51.740Z,2.64
2018-05-02T08:05:46.752Z,2.64
2018-05-02T08:11:41.755Z,2.6
2018-05-02T08:17:36.730Z,2.04
2018-05-02T08:23:31.786Z,2.7
2018-05-02T08:29:26.737Z,3.08
2018-05-02T08:35:21.717Z,2.31
2018-05-02T08:41:16.767Z,2.36
2018-05-02T08:47:11.859Z,2.5
2018-05-02T08:53:06.722Z,2.55
2018-05-02T08:59:01.730Z,2.4
2018-05-02T09:04:56.738Z,2.58
2018-05-02T09:10:51.778Z,2.77
2018-05-02T09:16:46.735Z,2.29
2018-05-02T09:22:41.723Z,2.8
2018-05-02T09:28:36.711Z,2.68
2018-05-02T09:34:31.732Z,2.86
2018-05-02T09:40:26.716Z,2.6
2018-05-02T09:46:21.745Z,3.61
2018-05-02T09:52:16.749Z,4.64
2018-05-02T09:58:11.727Z,4.65
2018-05-02T10:04:06.784Z,3.83
2018-05-02T10:10:01.748Z,3.64
2018-05-02T10:15:56.732Z,3.43
2018-05-02T10:21:51.809Z,3.83
2018-05-02T10:27:46.730Z,3.93
2018-05-02T10:33:41.780Z,3.53
2018-05-02T10:39:36.733Z,3.47
2018-05-02T10:45:31.721Z,3.52
2018-05-02T10:51:26.766Z,4.19
2018-05-02T10:57:21.758Z,3.62
2018-05-02T11:03:16.717Z,4.15
2018-05-02T11:09:11.706Z,4.73
2018-05-02T11:15:06.734Z,4.15
2018-05-02T11:21:01.731Z,3.54
2018-05-02T11:26:56.743Z,4.17
2018-05-02T11:32:51.754Z,3.84
2018-05-02T11:38:46.782Z,4.07
2018-05-02T11:44:41.729Z,4.85
2018-05-02T11:50:36.760Z,4.49
2018-05-02T11:56:31.711Z,4.96
2018-05-02T12:02:26.722Z,5.17
2018-05-02T12:08:21.767Z,5.13
2018-05-02T12:14:16.729Z,4.11
2018-05-02T12:20:11.712Z,4.81
2018-05-02T12:26:06.731Z,4.89
2018-05-02T12:32:01.722Z,5.13
2018-05-02T12:37:56.778Z,5.02
2018-05-02T12:43:51.767Z,5.87
2018-05-02T12:49:46.733Z,4.81
2018-05-02T12:55:41.735Z,5.7
2018-05-02T13:01:36.740Z,5.06
2018-05-02T13:07:31.746Z,5.13
2018-05-02T13:13:26.719Z,6.14
2018-05-02T13:19:21.739Z,5.78
2018-05-02T13:25:16.715Z,5.99
2018-05-02T13:31:11.725Z,5.6
2018-05-02T13:37:06.720Z,5.32
2018-05-02T13:43:01.708Z,5.15
2018-05-02T13:48:56.752Z,5.68
2018-05-02T13:54:51.731Z,6.13
2018-05-02T14:00:46.745Z,6.02
2018-05-02T14:06:41.782Z,5.56
2018-05-02T14:12:36.752Z,6.04
2018-05-02T14:18:31.784Z,6.02
2018-05-02T14:24:26.734Z,6.39
2018-05-02T14:30:21.784Z,6.12
2018-05-02T14:36:16.725Z,5.83
2018-05-02T14:42:11.759Z,6.02
2018-05-02T14:48:06.763Z,6.48
2018-05-02T14:54:01.819Z,6.36
2018-05-02T14:59:56.731Z,6.38
2018-05-02T15:05:51.722Z,6.04
2018-05-02T15:11:46.723Z,6.15
2018-05-02T15:17:41.715Z,6.89
2018-05-02T15:23:36.742Z,6.2
2018-05-02T15:29:31.746Z,6.75
2018-05-02T15:35:26.700Z,6.79
2018-05-02T15:41:21.753Z,6.83
2018-05-02T15:47:16.732Z,6.5
2018-05-02T15:53:11.751Z,6.3
2018-05-02T15:59:06.778Z,6.35
2018-05-02T16:05:01.748Z,6.27
2018-05-02T16:10:56.752Z,6.5
2018-05-02T16:16:51.722Z,6.94
2018-05-02T16:22:46.721Z,6.96
2018-05-02T16:28:41.730Z,6.64
2018-05-02T16:34:36.753Z,7.09
2018-05-02T16:40:31.778Z,6.11
2018-05-02T16:46:26.754Z,9.6
2018-05-02T16:52:21.787Z,10.15
2018-05-02T16:58:16.719Z,6.98
2018-05-02T17:04:11.828Z,7.04
2018-05-02T17:10:06.742Z,6.6
2018-05-02T17:16:01.750Z,6.87
2018-05-02T17:21:56.722Z,6.3
2018-05-02T17:27:51.708Z,6.75
2018-05-02T17:33:46.790Z,6.21
2018-05-02T17:39:41.760Z,7.01
2018-05-02T17:45:36.797Z,6.93
2018-05-02T17:51:31.732Z,7.19
2018-05-02T17:57:26.747Z,6.62
2018-05-02T18:03:21.717Z,6.82
2018-05-02T18:09:16.783Z,7.4
2018-05-02T18:15:11.758Z,9.28
2018-05-02T18:21:06.758Z,6.15
2018-05-02T18:27:01.740Z,6.86
2018-05-02T18:32:56.757Z,6.81
2018-05-02T18:38:51.768Z,10.76
2018-05-02T18:44:46.748Z,10.23
2018-05-02T18:50:41.740Z,11.8
2018-05-02T18:56:36.778Z,8.21
2018-05-02T19:02:31.710Z,17.07
2018-05-02T19:08:26.752Z,9.14
2018-05-02T19:14:21.746Z,8.66
2018-05-02T19:20:16.719Z,8.62
2018-05-02T19:26:11.720Z,7.91
2018-05-02T19:32:06.764Z,16.64
2018-05-02T19:38:01.734Z,11.95
2018-05-02T19:43:56.765Z,7.38
2018-05-02T19:49:51.741Z,8.08
2018-05-02T19:55:46.764Z,8.3
2018-05-02T20:01:41.764Z,10.3
2018-05-02T20:07:36.755Z,12.57
2018-05-02T20:13:31.745Z,8.16
2018-05-02T20:19:26.746Z,9.44
2018-05-02T20:25:21.894Z,9.33
2018-05-02T20:31:16.742Z,11.79
2018-05-02T20:37:11.725Z,11.47
2018-05-02T20:43:06.743Z,10.31
2018-05-02T20:49:01.748Z,14
2018-05-02T20:54:56.849Z,10.36
2018-05-02T21:00:51.745Z,9.77
2018-05-02T21:06:46.744Z,12.78
2018-05-02T21:12:41.766Z,11.97
2018-05-02T21:18:36.753Z,11.94
2018-05-02T21:24:31.771Z,23.3
2018-05-02T21:30:26.771Z,10.99
2018-05-02T21:36:21.791Z,9.99
2018-05-02T21:42:16.742Z,11.17
2018-05-02T21:48:11.740Z,9.98
2018-05-02T21:54:06.741Z,10.34
2018-05-02T22:00:01.817Z,10.5
2018-05-02T22:05:56.757Z,10.4
2018-05-02T22:11:51.762Z,10.76
2018-05-02T22:17:46.741Z,10.15
2018-05-02T22:23:41.744Z,10.23
2018-05-02T22:29:36.774Z,9.93
2018-05-02T22:35:31.731Z,10.13
2018-05-02T22:41:26.756Z,9.2
2018-05-02T22:47:21.717Z,10.88
2018-05-02T22:53:16.739Z,12.71
2018-05-02T22:59:11.796Z,8.7
2018-05-02T23:05:06.780Z,10.5
2018-05-02T23:11:01.745Z,20.81
2018-05-02T23:16:56.746Z,12.71
2018-05-02T23:22:51.765Z,9.96
2018-05-02T23:28:46.740Z,9.76
2018-05-02T23:34:41.753Z,9.6
2018-05-02T23:40:36.749Z,9.35
2018-05-02T23:46:31.782Z,9.46
2018-05-02T23:52:26.729Z,9.54
2018-05-02T23:58:21.781Z,8.97
